Attalla, Alabama
Current Conditions -  °F | °C
As of 11:35 PM on Friday 31 Oct 2014 (Local Time) from KGAD Reporting Station
Few Clouds Few Clouds  
Wind Chill: 32°   Ceiling: Unl
Heat Index: 39°   Visibility: 10mi
Dew Point: 23°   Wind: 12mph
Humidity: 52%   Direction: 310°NW
Pressure: 30.12"   Gusts: 21mph
Location:  34.02°N, 86.09°W
Report Text: KGAD 010435Z 31010G18KT 10SM FEW050 04/M05 A3012 RMK AO1
Loading
Personal Weather Stations






























Interactive Weather Map
Tropical Storm Tracking
New forecast layout! Learn more

10-Day Weather Forecast

Advertisements
Track Severe Weather on mobile